sensor_id;sensor_type;location;lat;lon;timestamp;P1;durP1;ratioP1;P2;durP2;ratioP2
20478;SDS011;10398;52.490;13.434;2023-06-22T00:01:52;11.13;;;6.22;;
20478;SDS011;10398;52.490;13.434;2023-06-22T00:04:18;10.70;;;6.18;;
20478;SDS011;10398;52.490;13.434;2023-06-22T00:06:44;12.23;;;6.57;;
20478;SDS011;10398;52.490;13.434;2023-06-22T00:09:09;21.75;;;9.85;;
20478;SDS011;10398;52.490;13.434;2023-06-22T00:11:35;18.92;;;10.52;;
20478;SDS011;10398;52.490;13.434;2023-06-22T00:14:02;15.88;;;9.10;;
20478;SDS011;10398;52.490;13.434;2023-06-22T00:16:29;12.93;;;7.40;;
20478;SDS011;10398;52.490;13.434;2023-06-22T00:18:54;10.73;;;6.28;;
20478;SDS011;10398;52.490;13.434;2023-06-22T00:21:20;11.13;;;6.82;;
20478;SDS011;10398;52.490;13.434;2023-06-22T00:23:46;11.30;;;7.10;;
20478;SDS011;10398;52.490;13.434;2023-06-22T00:26:12;10.32;;;6.60;;
20478;SDS011;10398;52.490;13.434;2023-06-22T00:28:38;11.85;;;6.80;;
20478;SDS011;10398;52.490;13.434;2023-06-22T00:31:04;15.23;;;8.50;;
20478;SDS011;10398;52.490;13.434;2023-06-22T00:33:30;12.27;;;6.80;;
20478;SDS011;10398;52.490;13.434;2023-06-22T00:35:56;10.90;;;6.55;;
20478;SDS011;10398;52.490;13.434;2023-06-22T00:38:22;13.48;;;6.80;;
20478;SDS011;10398;52.490;13.434;2023-06-22T00:40:47;13.13;;;6.72;;
20478;SDS011;10398;52.490;13.434;2023-06-22T00:43:13;9.93;;;6.28;;
20478;SDS011;10398;52.490;13.434;2023-06-22T00:45:39;16.67;;;9.35;;
20478;SDS011;10398;52.490;13.434;2023-06-22T00:48:05;11.30;;;7.05;;
20478;SDS011;10398;52.490;13.434;2023-06-22T00:50:32;10.00;;;6.43;;
20478;SDS011;10398;52.490;13.434;2023-06-22T00:53:06;13.85;;;7.47;;
20478;SDS011;10398;52.490;13.434;2023-06-22T00:55:42;10.25;;;5.72;;
20478;SDS011;10398;52.490;13.434;2023-06-22T00:58:10;10.60;;;5.88;;
20478;SDS011;10398;52.490;13.434;2023-06-22T01:00:37;12.07;;;7.28;;
20478;SDS011;10398;52.490;13.434;2023-06-22T01:03:03;14.10;;;7.85;;
20478;SDS011;10398;52.490;13.434;2023-06-22T01:05:33;11.77;;;7.22;;
20478;SDS011;10398;52.490;13.434;2023-06-22T01:08:04;10.95;;;6.55;;
20478;SDS011;10398;52.490;13.434;2023-06-22T01:13:28;13.38;;;6.97;;
20478;SDS011;10398;52.490;13.434;2023-06-22T01:16:12;15.93;;;6.60;;
20478;SDS011;10398;52.490;13.434;2023-06-22T01:18:50;10.70;;;6.43;;
20478;SDS011;10398;52.490;13.434;2023-06-22T01:21:20;9.20;;;6.53;;
20478;SDS011;10398;52.490;13.434;2023-06-22T01:24:22;16.65;;;7.97;;
20478;SDS011;10398;52.490;13.434;2023-06-22T01:27:02;10.13;;;6.32;;
20478;SDS011;10398;52.490;13.434;2023-06-22T01:29:52;11.38;;;5.63;;
20478;SDS011;10398;52.490;13.434;2023-06-22T01:32:25;10.15;;;6.35;;
20478;SDS011;10398;52.490;13.434;2023-06-22T01:34:56;10.38;;;6.82;;
20478;SDS011;10398;52.490;13.434;2023-06-22T01:37:24;11.88;;;6.63;;
20478;SDS011;10398;52.490;13.434;2023-06-22T01:39:51;10.00;;;6.18;;
20478;SDS011;10398;52.490;13.434;2023-06-22T01:42:18;12.55;;;7.82;;
20478;SDS011;10398;52.490;13.434;2023-06-22T01:44:44;11.07;;;7.35;;
20478;SDS011;10398;52.490;13.434;2023-06-22T01:47:11;11.90;;;7.53;;
20478;SDS011;10398;52.490;13.434;2023-06-22T01:49:39;11.75;;;7.00;;
20478;SDS011;10398;52.490;13.434;2023-06-22T01:52:06;11.90;;;6.88;;
20478;SDS011;10398;52.490;13.434;2023-06-22T01:54:32;12.10;;;6.93;;
20478;SDS011;10398;52.490;13.434;2023-06-22T01:56:58;13.63;;;7.10;;
20478;SDS011;10398;52.490;13.434;2023-06-22T02:02:02;12.70;;;7.30;;
20478;SDS011;10398;52.490;13.434;2023-06-22T02:04:36;12.60;;;7.50;;
20478;SDS011;10398;52.490;13.434;2023-06-22T02:07:13;11.48;;;7.07;;
20478;SDS011;10398;52.490;13.434;2023-06-22T02:09:45;14.70;;;7.72;;
20478;SDS011;10398;52.490;13.434;2023-06-22T02:12:13;12.55;;;7.25;;
20478;SDS011;10398;52.490;13.434;2023-06-22T02:14:44;12.35;;;7.40;;
20478;SDS011;10398;52.490;13.434;2023-06-22T02:17:11;11.65;;;7.82;;
20478;SDS011;10398;52.490;13.434;2023-06-22T02:19:40;15.18;;;8.00;;
20478;SDS011;10398;52.490;13.434;2023-06-22T02:22:06;15.27;;;7.43;;
20478;SDS011;10398;52.490;13.434;2023-06-22T02:24:32;19.25;;;7.78;;
20478;SDS011;10398;52.490;13.434;2023-06-22T02:26:58;15.30;;;8.30;;
20478;SDS011;10398;52.490;13.434;2023-06-22T02:29:25;14.95;;;8.00;;
20478;SDS011;10398;52.490;13.434;2023-06-22T02:31:52;13.88;;;8.00;;
20478;SDS011;10398;52.490;13.434;2023-06-22T02:34:18;13.23;;;8.85;;
20478;SDS011;10398;52.490;13.434;2023-06-22T02:36:45;17.80;;;7.95;;
20478;SDS011;10398;52.490;13.434;2023-06-22T02:39:22;14.02;;;8.20;;
20478;SDS011;10398;52.490;13.434;2023-06-22T02:41:52;12.77;;;7.63;;
20478;SDS011;10398;52.490;13.434;2023-06-22T02:44:19;17.00;;;8.52;;
20478;SDS011;10398;52.490;13.434;2023-06-22T02:46:46;16.63;;;8.20;;
20478;SDS011;10398;52.490;13.434;2023-06-22T02:49:12;12.68;;;7.60;;
20478;SDS011;10398;52.490;13.434;2023-06-22T02:51:38;14.18;;;7.47;;
20478;SDS011;10398;52.490;13.434;2023-06-22T02:54:07;15.63;;;8.23;;
20478;SDS011;10398;52.490;13.434;2023-06-22T02:56:32;14.02;;;7.93;;
20478;SDS011;10398;52.490;13.434;2023-06-22T02:58:58;12.50;;;7.07;;
20478;SDS011;10398;52.490;13.434;2023-06-22T03:01:27;13.40;;;8.10;;
20478;SDS011;10398;52.490;13.434;2023-06-22T03:03:52;16.88;;;8.25;;
20478;SDS011;10398;52.490;13.434;2023-06-22T03:06:19;21.35;;;7.80;;
20478;SDS011;10398;52.490;13.434;2023-06-22T03:08:48;16.42;;;7.78;;
20478;SDS011;10398;52.490;13.434;2023-06-22T03:11:15;12.25;;;7.45;;
20478;SDS011;10398;52.490;13.434;2023-06-22T03:13:40;16.42;;;8.50;;
20478;SDS011;10398;52.490;13.434;2023-06-22T03:16:06;12.48;;;7.57;;
20478;SDS011;10398;52.490;13.434;2023-06-22T03:18:32;13.82;;;7.32;;
20478;SDS011;10398;52.490;13.434;2023-06-22T03:20:57;13.82;;;7.38;;
20478;SDS011;10398;52.490;13.434;2023-06-22T03:23:23;15.70;;;7.05;;
20478;SDS011;10398;52.490;13.434;2023-06-22T03:25:49;12.75;;;7.30;;
20478;SDS011;10398;52.490;13.434;2023-06-22T03:28:15;10.32;;;7.15;;
20478;SDS011;10398;52.490;13.434;2023-06-22T03:30:40;10.85;;;6.70;;
20478;SDS011;10398;52.490;13.434;2023-06-22T03:33:06;11.50;;;6.90;;
20478;SDS011;10398;52.490;13.434;2023-06-22T03:35:31;14.20;;;7.68;;
20478;SDS011;10398;52.490;13.434;2023-06-22T03:37:57;15.35;;;6.95;;
20478;SDS011;10398;52.490;13.434;2023-06-22T03:40:23;9.02;;;6.53;;
20478;SDS011;10398;52.490;13.434;2023-06-22T03:42:48;9.57;;;5.93;;
20478;SDS011;10398;52.490;13.434;2023-06-22T03:45:14;12.20;;;6.57;;
20478;SDS011;10398;52.490;13.434;2023-06-22T03:47:40;9.75;;;5.90;;
20478;SDS011;10398;52.490;13.434;2023-06-22T03:50:06;11.45;;;6.00;;
20478;SDS011;10398;52.490;13.434;2023-06-22T03:52:32;9.43;;;5.43;;
20478;SDS011;10398;52.490;13.434;2023-06-22T03:54:57;7.60;;;4.50;;
20478;SDS011;10398;52.490;13.434;2023-06-22T03:57:23;10.20;;;5.63;;
20478;SDS011;10398;52.490;13.434;2023-06-22T03:59:49;8.95;;;4.50;;
20478;SDS011;10398;52.490;13.434;2023-06-22T04:02:14;9.55;;;4.75;;
20478;SDS011;10398;52.490;13.434;2023-06-22T04:04:40;8.52;;;5.15;;
20478;SDS011;10398;52.490;13.434;2023-06-22T04:07:06;7.22;;;4.28;;
20478;SDS011;10398;52.490;13.434;2023-06-22T04:09:31;7.22;;;3.97;;
20478;SDS011;10398;52.490;13.434;2023-06-22T04:11:57;5.82;;;4.03;;
20478;SDS011;10398;52.490;13.434;2023-06-22T04:14:22;8.50;;;4.70;;
20478;SDS011;10398;52.490;13.434;2023-06-22T04:16:48;8.13;;;4.43;;
20478;SDS011;10398;52.490;13.434;2023-06-22T04:19:14;10.13;;;5.10;;
20478;SDS011;10398;52.490;13.434;2023-06-22T04:21:42;8.68;;;5.05;;
20478;SDS011;10398;52.490;13.434;2023-06-22T04:24:13;7.78;;;4.55;;
20478;SDS011;10398;52.490;13.434;2023-06-22T04:26:39;6.55;;;4.15;;
20478;SDS011;10398;52.490;13.434;2023-06-22T04:29:06;8.68;;;4.28;;
20478;SDS011;10398;52.490;13.434;2023-06-22T04:31:34;9.85;;;5.50;;
20478;SDS011;10398;52.490;13.434;2023-06-22T04:34:03;11.75;;;7.03;;
20478;SDS011;10398;52.490;13.434;2023-06-22T04:36:36;13.10;;;6.45;;
20478;SDS011;10398;52.490;13.434;2023-06-22T04:39:07;15.38;;;8.95;;
20478;SDS011;10398;52.490;13.434;2023-06-22T04:41:35;10.38;;;5.95;;
20478;SDS011;10398;52.490;13.434;2023-06-22T04:44:07;11.88;;;5.68;;
20478;SDS011;10398;52.490;13.434;2023-06-22T04:46:33;12.00;;;5.10;;
20478;SDS011;10398;52.490;13.434;2023-06-22T04:49:03;8.95;;;5.15;;
20478;SDS011;10398;52.490;13.434;2023-06-22T04:51:31;8.73;;;4.68;;
20478;SDS011;10398;52.490;13.434;2023-06-22T04:53:57;8.32;;;4.90;;
20478;SDS011;10398;52.490;13.434;2023-06-22T04:56:26;8.60;;;4.68;;
20478;SDS011;10398;52.490;13.434;2023-06-22T04:58:53;6.50;;;4.10;;
20478;SDS011;10398;52.490;13.434;2023-06-22T05:01:22;8.95;;;4.10;;
20478;SDS011;10398;52.490;13.434;2023-06-22T05:03:48;7.88;;;4.32;;
20478;SDS011;10398;52.490;13.434;2023-06-22T05:06:13;6.55;;;3.97;;
20478;SDS011;10398;52.490;13.434;2023-06-22T05:08:39;10.88;;;5.10;;
20478;SDS011;10398;52.490;13.434;2023-06-22T05:11:05;10.60;;;4.13;;
20478;SDS011;10398;52.490;13.434;2023-06-22T05:13:31;10.45;;;5.05;;
20478;SDS011;10398;52.490;13.434;2023-06-22T05:15:57;8.20;;;4.13;;
20478;SDS011;10398;52.490;13.434;2023-06-22T05:18:30;7.68;;;4.82;;
20478;SDS011;10398;52.490;13.434;2023-06-22T05:20:57;8.18;;;4.55;;
20478;SDS011;10398;52.490;13.434;2023-06-22T05:23:24;6.72;;;4.20;;
20478;SDS011;10398;52.490;13.434;2023-06-22T05:25:51;8.40;;;4.80;;
20478;SDS011;10398;52.490;13.434;2023-06-22T05:28:16;9.13;;;5.38;;
20478;SDS011;10398;52.490;13.434;2023-06-22T05:30:47;9.27;;;4.97;;
20478;SDS011;10398;52.490;13.434;2023-06-22T05:33:13;7.72;;;4.70;;
20478;SDS011;10398;52.490;13.434;2023-06-22T05:35:39;7.80;;;4.93;;
20478;SDS011;10398;52.490;13.434;2023-06-22T05:38:04;8.70;;;4.65;;
20478;SDS011;10398;52.490;13.434;2023-06-22T05:40:30;7.05;;;4.00;;
20478;SDS011;10398;52.490;13.434;2023-06-22T05:42:55;10.50;;;4.47;;
20478;SDS011;10398;52.490;13.434;2023-06-22T05:45:21;10.07;;;4.18;;
20478;SDS011;10398;52.490;13.434;2023-06-22T05:47:47;11.07;;;4.75;;
20478;SDS011;10398;52.490;13.434;2023-06-22T05:50:12;7.22;;;4.00;;
20478;SDS011;10398;52.490;13.434;2023-06-22T05:52:38;11.13;;;3.80;;
20478;SDS011;10398;52.490;13.434;2023-06-22T05:55:04;9.15;;;4.20;;
20478;SDS011;10398;52.490;13.434;2023-06-22T05:57:30;8.23;;;3.92;;
20478;SDS011;10398;52.490;13.434;2023-06-22T05:59:55;9.52;;;4.28;;
20478;SDS011;10398;52.490;13.434;2023-06-22T06:02:21;7.40;;;4.10;;
20478;SDS011;10398;52.490;13.434;2023-06-22T06:04:46;7.30;;;3.72;;
20478;SDS011;10398;52.490;13.434;2023-06-22T06:07:12;9.00;;;3.90;;
20478;SDS011;10398;52.490;13.434;2023-06-22T06:09:38;7.45;;;3.72;;
20478;SDS011;10398;52.490;13.434;2023-06-22T06:12:04;5.95;;;3.65;;
20478;SDS011;10398;52.490;13.434;2023-06-22T06:14:29;5.82;;;3.83;;
20478;SDS011;10398;52.490;13.434;2023-06-22T06:16:55;7.45;;;3.53;;
20478;SDS011;10398;52.490;13.434;2023-06-22T06:19:21;4.75;;;3.25;;
20478;SDS011;10398;52.490;13.434;2023-06-22T06:21:46;6.40;;;3.08;;
20478;SDS011;10398;52.490;13.434;2023-06-22T06:24:12;6.25;;;3.50;;
20478;SDS011;10398;52.490;13.434;2023-06-22T06:26:38;5.95;;;3.30;;
20478;SDS011;10398;52.490;13.434;2023-06-22T06:29:04;6.50;;;3.58;;
20478;SDS011;10398;52.490;13.434;2023-06-22T06:31:29;7.38;;;3.45;;
20478;SDS011;10398;52.490;13.434;2023-06-22T06:33:55;10.05;;;3.80;;
20478;SDS011;10398;52.490;13.434;2023-06-22T06:36:21;7.38;;;4.60;;
20478;SDS011;10398;52.490;13.434;2023-06-22T06:38:47;10.20;;;4.72;;
20478;SDS011;10398;52.490;13.434;2023-06-22T06:41:14;6.95;;;3.50;;
20478;SDS011;10398;52.490;13.434;2023-06-22T06:43:41;5.00;;;3.45;;
20478;SDS011;10398;52.490;13.434;2023-06-22T06:46:09;5.70;;;2.53;;
20478;SDS011;10398;52.490;13.434;2023-06-22T06:48:35;4.82;;;3.00;;
20478;SDS011;10398;52.490;13.434;2023-06-22T06:51:01;5.78;;;3.60;;
20478;SDS011;10398;52.490;13.434;2023-06-22T06:53:27;9.50;;;4.10;;
20478;SDS011;10398;52.490;13.434;2023-06-22T06:55:53;5.25;;;2.50;;
20478;SDS011;10398;52.490;13.434;2023-06-22T06:58:19;8.48;;;2.92;;
20478;SDS011;10398;52.490;13.434;2023-06-22T07:00:45;5.30;;;2.65;;
20478;SDS011;10398;52.490;13.434;2023-06-22T07:03:11;8.35;;;2.40;;
20478;SDS011;10398;52.490;13.434;2023-06-22T07:05:36;4.93;;;2.50;;
20478;SDS011;10398;52.490;13.434;2023-06-22T07:08:02;4.47;;;2.45;;
20478;SDS011;10398;52.490;13.434;2023-06-22T07:10:28;6.22;;;2.58;;
20478;SDS011;10398;52.490;13.434;2023-06-22T07:12:54;5.65;;;2.47;;
20478;SDS011;10398;52.490;13.434;2023-06-22T07:15:20;6.63;;;2.70;;
20478;SDS011;10398;52.490;13.434;2023-06-22T07:17:45;5.05;;;2.80;;
20478;SDS011;10398;52.490;13.434;2023-06-22T07:20:11;5.15;;;2.83;;
20478;SDS011;10398;52.490;13.434;2023-06-22T07:22:37;3.45;;;2.40;;
20478;SDS011;10398;52.490;13.434;2023-06-22T07:25:04;4.88;;;2.38;;
20478;SDS011;10398;52.490;13.434;2023-06-22T07:27:37;7.47;;;2.85;;
20478;SDS011;10398;52.490;13.434;2023-06-22T07:30:07;5.88;;;2.53;;
20478;SDS011;10398;52.490;13.434;2023-06-22T07:32:34;6.15;;;2.53;;
20478;SDS011;10398;52.490;13.434;2023-06-22T07:35:00;5.88;;;2.45;;
20478;SDS011;10398;52.490;13.434;2023-06-22T07:37:26;4.45;;;2.35;;
20478;SDS011;10398;52.490;13.434;2023-06-22T07:39:53;6.75;;;2.75;;
20478;SDS011;10398;52.490;13.434;2023-06-22T07:42:23;5.53;;;2.40;;
20478;SDS011;10398;52.490;13.434;2023-06-22T07:44:52;5.70;;;2.05;;
20478;SDS011;10398;52.490;13.434;2023-06-22T07:47:19;5.28;;;2.40;;
20478;SDS011;10398;52.490;13.434;2023-06-22T07:49:45;3.88;;;2.03;;
20478;SDS011;10398;52.490;13.434;2023-06-22T07:52:11;3.53;;;2.10;;
20478;SDS011;10398;52.490;13.434;2023-06-22T07:54:37;7.10;;;2.28;;
20478;SDS011;10398;52.490;13.434;2023-06-22T07:57:03;5.82;;;2.10;;
20478;SDS011;10398;52.490;13.434;2023-06-22T07:59:29;7.30;;;2.40;;
20478;SDS011;10398;52.490;13.434;2023-06-22T08:01:55;5.00;;;2.10;;
20478;SDS011;10398;52.490;13.434;2023-06-22T08:04:21;3.45;;;1.63;;
20478;SDS011;10398;52.490;13.434;2023-06-22T08:06:46;7.65;;;2.13;;
20478;SDS011;10398;52.490;13.434;2023-06-22T08:09:14;3.10;;;1.73;;
20478;SDS011;10398;52.490;13.434;2023-06-22T08:11:43;5.15;;;1.50;;
20478;SDS011;10398;52.490;13.434;2023-06-22T08:14:09;3.88;;;1.83;;
20478;SDS011;10398;52.490;13.434;2023-06-22T08:16:34;3.20;;;1.58;;
20478;SDS011;10398;52.490;13.434;2023-06-22T08:19:00;3.97;;;1.73;;
20478;SDS011;10398;52.490;13.434;2023-06-22T08:21:26;4.03;;;1.70;;
20478;SDS011;10398;52.490;13.434;2023-06-22T08:23:51;3.90;;;2.22;;
20478;SDS011;10398;52.490;13.434;2023-06-22T08:26:17;5.47;;;2.10;;
20478;SDS011;10398;52.490;13.434;2023-06-22T08:28:43;2.78;;;1.92;;
20478;SDS011;10398;52.490;13.434;2023-06-22T08:31:08;4.93;;;2.70;;
20478;SDS011;10398;52.490;13.434;2023-06-22T08:33:34;4.80;;;2.05;;
20478;SDS011;10398;52.490;13.434;2023-06-22T08:36:00;3.75;;;2.20;;
20478;SDS011;10398;52.490;13.434;2023-06-22T08:38:26;5.05;;;2.13;;
20478;SDS011;10398;52.490;13.434;2023-06-22T08:40:51;3.97;;;2.20;;
20478;SDS011;10398;52.490;13.434;2023-06-22T08:43:17;4.28;;;2.50;;
20478;SDS011;10398;52.490;13.434;2023-06-22T08:45:43;3.25;;;2.05;;
20478;SDS011;10398;52.490;13.434;2023-06-22T08:48:09;4.32;;;2.00;;
20478;SDS011;10398;52.490;13.434;2023-06-22T08:50:35;4.28;;;2.30;;
20478;SDS011;10398;52.490;13.434;2023-06-22T08:53:00;2.65;;;2.00;;
20478;SDS011;10398;52.490;13.434;2023-06-22T08:55:26;6.15;;;2.30;;
20478;SDS011;10398;52.490;13.434;2023-06-22T08:57:51;5.03;;;2.50;;
20478;SDS011;10398;52.490;13.434;2023-06-22T09:00:17;2.97;;;1.98;;
20478;SDS011;10398;52.490;13.434;2023-06-22T09:02:45;3.17;;;2.08;;
20478;SDS011;10398;52.490;13.434;2023-06-22T09:05:11;3.58;;;1.90;;
20478;SDS011;10398;52.490;13.434;2023-06-22T09:07:37;3.83;;;1.88;;
20478;SDS011;10398;52.490;13.434;2023-06-22T09:10:03;4.25;;;1.90;;
20478;SDS011;10398;52.490;13.434;2023-06-22T09:12:29;3.83;;;2.50;;
20478;SDS011;10398;52.490;13.434;2023-06-22T09:14:56;6.25;;;3.03;;
20478;SDS011;10398;52.490;13.434;2023-06-22T09:17:22;4.82;;;2.00;;
20478;SDS011;10398;52.490;13.434;2023-06-22T09:19:47;3.08;;;1.77;;
20478;SDS011;10398;52.490;13.434;2023-06-22T09:22:13;4.75;;;2.03;;
20478;SDS011;10398;52.490;13.434;2023-06-22T09:24:39;5.22;;;2.05;;
20478;SDS011;10398;52.490;13.434;2023-06-22T09:27:05;9.57;;;4.60;;
20478;SDS011;10398;52.490;13.434;2023-06-22T09:29:31;6.38;;;2.80;;
20478;SDS011;10398;52.490;13.434;2023-06-22T09:31:58;4.43;;;2.25;;
20478;SDS011;10398;52.490;13.434;2023-06-22T09:34:24;11.75;;;5.47;;
20478;SDS011;10398;52.490;13.434;2023-06-22T09:36:50;7.70;;;3.80;;
20478;SDS011;10398;52.490;13.434;2023-06-22T09:39:17;10.55;;;3.30;;
20478;SDS011;10398;52.490;13.434;2023-06-22T09:41:43;12.07;;;4.30;;
20478;SDS011;10398;52.490;13.434;2023-06-22T09:44:09;4.90;;;2.90;;
20478;SDS011;10398;52.490;13.434;2023-06-22T09:46:35;4.22;;;2.45;;
20478;SDS011;10398;52.490;13.434;2023-06-22T09:49:00;3.05;;;2.03;;
20478;SDS011;10398;52.490;13.434;2023-06-22T09:51:26;3.63;;;2.35;;
20478;SDS011;10398;52.490;13.434;2023-06-22T09:53:52;3.13;;;1.90;;
20478;SDS011;10398;52.490;13.434;2023-06-22T09:56:21;5.82;;;2.78;;
20478;SDS011;10398;52.490;13.434;2023-06-22T09:58:47;3.80;;;2.30;;
20478;SDS011;10398;52.490;13.434;2023-06-22T10:01:15;3.63;;;1.92;;
20478;SDS011;10398;52.490;13.434;2023-06-22T10:03:41;5.10;;;2.50;;
20478;SDS011;10398;52.490;13.434;2023-06-22T10:06:07;4.38;;;2.58;;
20478;SDS011;10398;52.490;13.434;2023-06-22T10:08:34;4.20;;;2.50;;
20478;SDS011;10398;52.490;13.434;2023-06-22T10:11:00;3.78;;;2.42;;
20478;SDS011;10398;52.490;13.434;2023-06-22T10:13:26;4.47;;;2.38;;
20478;SDS011;10398;52.490;13.434;2023-06-22T10:15:51;3.90;;;2.50;;
20478;SDS011;10398;52.490;13.434;2023-06-22T10:18:18;3.38;;;2.50;;
20478;SDS011;10398;52.490;13.434;2023-06-22T10:20:48;5.00;;;2.40;;
20478;SDS011;10398;52.490;13.434;2023-06-22T10:23:17;4.40;;;2.55;;
20478;SDS011;10398;52.490;13.434;2023-06-22T10:25:44;5.32;;;2.90;;
20478;SDS011;10398;52.490;13.434;2023-06-22T10:28:09;4.35;;;3.03;;
20478;SDS011;10398;52.490;13.434;2023-06-22T10:30:35;5.15;;;2.17;;
20478;SDS011;10398;52.490;13.434;2023-06-22T10:33:04;5.20;;;2.45;;
20478;SDS011;10398;52.490;13.434;2023-06-22T10:35:30;3.58;;;2.38;;
20478;SDS011;10398;52.490;13.434;2023-06-22T10:37:55;4.85;;;2.03;;
20478;SDS011;10398;52.490;13.434;2023-06-22T10:40:21;5.85;;;2.50;;
20478;SDS011;10398;52.490;13.434;2023-06-22T10:42:46;9.20;;;2.38;;
20478;SDS011;10398;52.490;13.434;2023-06-22T10:45:12;4.15;;;2.17;;
20478;SDS011;10398;52.490;13.434;2023-06-22T10:47:38;3.72;;;2.42;;
20478;SDS011;10398;52.490;13.434;2023-06-22T10:50:04;4.32;;;2.63;;
20478;SDS011;10398;52.490;13.434;2023-06-22T10:52:30;4.85;;;2.00;;
20478;SDS011;10398;52.490;13.434;2023-06-22T10:54:56;2.50;;;2.08;;
20478;SDS011;10398;52.490;13.434;2023-06-22T10:57:22;3.78;;;1.90;;
20478;SDS011;10398;52.490;13.434;2023-06-22T10:59:48;5.53;;;3.22;;
20478;SDS011;10398;52.490;13.434;2023-06-22T11:02:14;4.03;;;2.30;;
20478;SDS011;10398;52.490;13.434;2023-06-22T11:04:40;4.25;;;2.75;;
20478;SDS011;10398;52.490;13.434;2023-06-22T11:07:05;3.50;;;2.22;;
20478;SDS011;10398;52.490;13.434;2023-06-22T11:09:31;3.25;;;1.92;;
20478;SDS011;10398;52.490;13.434;2023-06-22T11:11:57;3.50;;;2.20;;
20478;SDS011;10398;52.490;13.434;2023-06-22T11:14:24;4.95;;;2.20;;
20478;SDS011;10398;52.490;13.434;2023-06-22T11:16:50;3.53;;;2.20;;
20478;SDS011;10398;52.490;13.434;2023-06-22T11:19:15;3.65;;;2.25;;
20478;SDS011;10398;52.490;13.434;2023-06-22T11:21:41;3.00;;;1.83;;
20478;SDS011;10398;52.490;13.434;2023-06-22T11:24:07;3.20;;;2.03;;
20478;SDS011;10398;52.490;13.434;2023-06-22T11:26:32;2.92;;;2.00;;
20478;SDS011;10398;52.490;13.434;2023-06-22T11:28:58;3.85;;;2.17;;
20478;SDS011;10398;52.490;13.434;2023-06-22T11:31:24;2.78;;;2.05;;
20478;SDS011;10398;52.490;13.434;2023-06-22T11:33:50;2.65;;;1.60;;
20478;SDS011;10398;52.490;13.434;2023-06-22T11:36:16;4.07;;;1.95;;
20478;SDS011;10398;52.490;13.434;2023-06-22T11:38:42;5.80;;;2.35;;
20478;SDS011;10398;52.490;13.434;2023-06-22T11:41:08;5.57;;;2.60;;
20478;SDS011;10398;52.490;13.434;2023-06-22T11:43:35;9.32;;;2.88;;
20478;SDS011;10398;52.490;13.434;2023-06-22T11:46:05;5.43;;;2.20;;
20478;SDS011;10398;52.490;13.434;2023-06-22T11:48:31;4.32;;;2.40;;
20478;SDS011;10398;52.490;13.434;2023-06-22T11:50:57;7.88;;;2.20;;
20478;SDS011;10398;52.490;13.434;2023-06-22T11:53:24;4.55;;;2.47;;
20478;SDS011;10398;52.490;13.434;2023-06-22T11:55:51;4.88;;;2.00;;
20478;SDS011;10398;52.490;13.434;2023-06-22T11:58:18;4.18;;;2.35;;
20478;SDS011;10398;52.490;13.434;2023-06-22T12:00:44;3.97;;;2.08;;
20478;SDS011;10398;52.490;13.434;2023-06-22T12:03:10;3.40;;;2.50;;
20478;SDS011;10398;52.490;13.434;2023-06-22T12:05:37;3.25;;;2.30;;
20478;SDS011;10398;52.490;13.434;2023-06-22T12:08:03;4.32;;;2.30;;
20478;SDS011;10398;52.490;13.434;2023-06-22T12:10:29;3.92;;;2.10;;
20478;SDS011;10398;52.490;13.434;2023-06-22T12:12:55;4.32;;;2.40;;
20478;SDS011;10398;52.490;13.434;2023-06-22T12:15:22;4.03;;;2.53;;
20478;SDS011;10398;52.490;13.434;2023-06-22T12:17:48;5.00;;;2.90;;
20478;SDS011;10398;52.490;13.434;2023-06-22T12:20:15;5.55;;;3.20;;
20478;SDS011;10398;52.490;13.434;2023-06-22T12:22:41;8.27;;;2.65;;
20478;SDS011;10398;52.490;13.434;2023-06-22T12:25:07;8.27;;;2.70;;
20478;SDS011;10398;52.490;13.434;2023-06-22T12:27:34;5.38;;;2.53;;
20478;SDS011;10398;52.490;13.434;2023-06-22T12:30:00;5.70;;;2.65;;
20478;SDS011;10398;52.490;13.434;2023-06-22T12:32:26;4.32;;;2.58;;
20478;SDS011;10398;52.490;13.434;2023-06-22T12:34:52;5.55;;;2.70;;
20478;SDS011;10398;52.490;13.434;2023-06-22T12:37:17;3.80;;;2.33;;
20478;SDS011;10398;52.490;13.434;2023-06-22T12:39:43;3.40;;;2.42;;
20478;SDS011;10398;52.490;13.434;2023-06-22T12:42:09;2.88;;;2.10;;
20478;SDS011;10398;52.490;13.434;2023-06-22T12:44:37;8.40;;;2.20;;
20478;SDS011;10398;52.490;13.434;2023-06-22T12:47:03;5.88;;;2.50;;
20478;SDS011;10398;52.490;13.434;2023-06-22T12:49:29;3.67;;;2.60;;
20478;SDS011;10398;52.490;13.434;2023-06-22T12:51:55;6.05;;;2.75;;
20478;SDS011;10398;52.490;13.434;2023-06-22T12:54:20;5.85;;;2.80;;
20478;SDS011;10398;52.490;13.434;2023-06-22T12:56:46;4.28;;;2.38;;
20478;SDS011;10398;52.490;13.434;2023-06-22T12:59:12;6.15;;;3.05;;
20478;SDS011;10398;52.490;13.434;2023-06-22T13:01:38;4.70;;;2.97;;
20478;SDS011;10398;52.490;13.434;2023-06-22T13:04:03;4.38;;;2.67;;
20478;SDS011;10398;52.490;13.434;2023-06-22T13:06:30;9.15;;;3.13;;
20478;SDS011;10398;52.490;13.434;2023-06-22T13:08:56;5.20;;;2.50;;
20478;SDS011;10398;52.490;13.434;2023-06-22T13:11:21;4.78;;;2.75;;
20478;SDS011;10398;52.490;13.434;2023-06-22T13:13:47;4.70;;;3.00;;
20478;SDS011;10398;52.490;13.434;2023-06-22T13:16:12;4.88;;;2.80;;
20478;SDS011;10398;52.490;13.434;2023-06-22T13:18:38;5.43;;;2.63;;
20478;SDS011;10398;52.490;13.434;2023-06-22T13:21:04;5.38;;;2.75;;
20478;SDS011;10398;52.490;13.434;2023-06-22T13:23:30;4.05;;;3.00;;
20478;SDS011;10398;52.490;13.434;2023-06-22T13:25:56;4.68;;;2.78;;
20478;SDS011;10398;52.490;13.434;2023-06-22T13:28:22;4.63;;;2.80;;
20478;SDS011;10398;52.490;13.434;2023-06-22T13:30:48;4.97;;;2.80;;
20478;SDS011;10398;52.490;13.434;2023-06-22T13:33:14;4.40;;;2.80;;
20478;SDS011;10398;52.490;13.434;2023-06-22T13:35:40;3.60;;;2.47;;
20478;SDS011;10398;52.490;13.434;2023-06-22T13:38:07;4.78;;;3.30;;
20478;SDS011;10398;52.490;13.434;2023-06-22T13:40:34;4.75;;;2.72;;
20478;SDS011;10398;52.490;13.434;2023-06-22T13:42:59;3.60;;;2.50;;
20478;SDS011;10398;52.490;13.434;2023-06-22T13:45:25;3.85;;;2.88;;
20478;SDS011;10398;52.490;13.434;2023-06-22T13:47:51;5.35;;;3.28;;
20478;SDS011;10398;52.490;13.434;2023-06-22T13:50:17;4.25;;;2.75;;
20478;SDS011;10398;52.490;13.434;2023-06-22T13:52:42;4.90;;;3.08;;
20478;SDS011;10398;52.490;13.434;2023-06-22T13:55:08;3.50;;;2.53;;
20478;SDS011;10398;52.490;13.434;2023-06-22T13:57:34;5.00;;;3.10;;
20478;SDS011;10398;52.490;13.434;2023-06-22T14:00:00;9.35;;;2.80;;
20478;SDS011;10398;52.490;13.434;2023-06-22T14:02:27;3.55;;;2.65;;
20478;SDS011;10398;52.490;13.434;2023-06-22T14:04:53;3.50;;;2.50;;
20478;SDS011;10398;52.490;13.434;2023-06-22T14:07:19;5.88;;;2.92;;
20478;SDS011;10398;52.490;13.434;2023-06-22T14:09:45;4.88;;;2.90;;
20478;SDS011;10398;52.490;13.434;2023-06-22T14:12:11;5.25;;;3.20;;
20478;SDS011;10398;52.490;13.434;2023-06-22T14:14:37;4.78;;;2.63;;
20478;SDS011;10398;52.490;13.434;2023-06-22T14:17:03;4.45;;;2.53;;
20478;SDS011;10398;52.490;13.434;2023-06-22T14:19:29;4.18;;;2.70;;
20478;SDS011;10398;52.490;13.434;2023-06-22T14:21:55;7.13;;;2.78;;
20478;SDS011;10398;52.490;13.434;2023-06-22T14:24:22;3.78;;;2.30;;
20478;SDS011;10398;52.490;13.434;2023-06-22T14:26:48;2.88;;;2.50;;
20478;SDS011;10398;52.490;13.434;2023-06-22T14:29:13;3.20;;;2.50;;
20478;SDS011;10398;52.490;13.434;2023-06-22T14:31:44;5.07;;;2.83;;
20478;SDS011;10398;52.490;13.434;2023-06-22T14:34:10;4.43;;;2.65;;